Time;durP1;ratioP1;P1;durP2;ratioP2;P2;SDS_P1;SDS_P2;PMS_P1;PMS_P2;Temp;Humidity;BMP_temperature;BMP_pressure;BME280_temperature;BME280_humidity;BME280_pressure;Samples;Min_cycle;Max_cycle;Signal;HPM_P1;HPM_P2
2024/01/09 00:02:20;;;;;;;5.90;5.10;;;;;;;6.99;68.73;94520.19;5069884;28;20182;-68
2024/01/09 00:04:48;;;;;;;5.13;4.63;;;;;;;7.10;68.92;94531.25;5069319;28;20259;-68
2024/01/09 00:07:15;;;;;;;5.90;5.33;;;;;;;7.12;68.63;94539.56;5070215;28;20194;-69
2024/01/09 00:09:42;;;;;;;6.17;5.20;;;;;;;7.13;68.93;94541.19;5069677;28;20705;-71
2024/01/09 00:12:09;;;;;;;6.67;4.70;;;;;;;7.08;69.01;94540.72;5069750;28;20709;-71
2024/01/09 00:14:36;;;;;;;6.27;5.27;;;;;;;7.10;68.69;94547.31;5069421;28;20218;-71
2024/01/09 00:17:02;;;;;;;7.03;5.90;;;;;;;7.10;68.80;94554.94;5069933;28;20713;-72
2024/01/09 00:19:29;;;;;;;5.70;5.13;;;;;;;6.68;68.89;94493.81;5069761;28;20182;-64
2024/01/09 00:21:57;;;;;;;5.23;4.73;;;;;;;7.08;68.78;94549.19;5070150;28;20339;-65
2024/01/09 00:24:24;;;;;;;5.57;4.70;;;;;;;7.07;68.72;94554.38;5069573;28;20186;-63
2024/01/09 00:26:51;;;;;;;5.40;4.57;;;;;;;7.07;68.89;94564.53;5069654;28;20194;-66
2024/01/09 00:29:18;;;;;;;5.77;5.13;;;;;;;7.06;68.93;94562.94;5069371;28;20194;-67
2024/01/09 00:31:45;;;;;;;6.83;4.97;;;;;;;7.01;68.96;94555.66;5069288;28;20190;-66
2024/01/09 00:34:12;;;;;;;6.07;5.00;;;;;;;7.06;68.76;94562.94;5069217;28;20276;-64
2024/01/09 00:36:43;;;;;;;6.10;5.33;;;;;;;7.04;68.79;94563.88;5069139;28;20739;-64
2024/01/09 00:39:11;;;;;;;5.50;5.00;;;;;;;7.03;68.80;94569.06;5069937;28;20213;-66
2024/01/09 00:41:37;;;;;;;5.83;5.23;;;;;;;7.01;68.81;94561.56;5069587;28;20607;-65
2024/01/09 00:44:04;;;;;;;5.23;4.70;;;;;;;7.00;68.97;94572.66;5070580;28;20205;-67
2024/01/09 00:46:31;;;;;;;6.03;5.37;;;;;;;7.00;68.88;94582.81;5073100;28;20186;-66
2024/01/09 00:48:58;;;;;;;5.97;5.47;;;;;;;7.00;68.94;94580.28;5073632;28;20514;-67
2024/01/09 00:51:24;;;;;;;5.90;4.77;;;;;;;7.00;68.84;94582.03;5073398;28;20323;-67
2024/01/09 00:53:51;;;;;;;6.93;5.50;;;;;;;6.95;68.98;94574.75;5073625;28;20186;-70
2024/01/09 00:56:19;;;;;;;5.50;4.80;;;;;;;7.00;68.91;94576.94;5073630;28;20256;-66
2024/01/09 00:58:46;;;;;;;6.10;5.23;;;;;;;7.00;68.85;94587.91;5073371;28;20631;-65
2024/01/09 01:01:13;;;;;;;5.67;5.17;;;;;;;6.99;68.79;94586.31;5072851;28;20575;-69
2024/01/09 01:03:40;;;;;;;6.27;5.17;;;;;;;6.98;68.85;94592.28;5073585;28;20274;-68
2024/01/09 01:06:06;;;;;;;6.37;5.47;;;;;;;6.98;68.85;94583.84;5073797;28;20572;-69
2024/01/09 01:08:34;;;;;;;5.63;5.03;;;;;;;6.97;68.86;94588.13;5073804;28;20182;-66
2024/01/09 01:11:01;;;;;;;4.90;4.40;;;;;;;6.94;68.99;94583.28;5073588;28;20218;-68
2024/01/09 01:13:30;;;;;;;5.43;4.67;;;;;;;6.96;68.73;94589.06;5073742;28;20197;-68
2024/01/09 01:15:56;;;;;;;5.50;5.00;;;;;;;6.83;69.00;94570.59;5077473;28;20199;-71
2024/01/09 01:18:23;;;;;;;5.37;4.80;;;;;;;6.95;68.75;94586.63;5087726;28;20195;-64
2024/01/09 01:20:50;;;;;;;6.47;5.10;;;;;;;6.95;68.72;94590.00;5086879;28;20182;-68
2024/01/09 01:23:17;;;;;;;5.43;4.93;;;;;;;6.94;68.67;94593.44;5073710;28;20186;-67
2024/01/09 01:25:44;;;;;;;5.37;4.63;;;;;;;6.95;68.74;94596.78;5073647;28;20232;-66
2024/01/09 01:28:11;;;;;;;6.83;5.50;;;;;;;6.94;68.94;94602.81;5072604;28;20289;-68
2024/01/09 01:30:39;;;;;;;5.70;5.00;;;;;;;6.91;68.99;94597.94;5072774;28;20687;-69
2024/01/09 01:33:06;;;;;;;5.37;4.80;;;;;;;6.91;68.72;94588.63;5075151;28;20194;-65
2024/01/09 01:35:33;;;;;;;5.40;4.23;;;;;;;6.94;68.76;94596.00;5080577;28;20201;-69
2024/01/09 01:37:59;;;;;;;5.23;4.73;;;;;;;6.94;68.65;94603.63;5084359;28;20215;-63
2024/01/09 01:40:26;;;;;;;5.10;4.57;;;;;;;6.94;68.61;94600.28;5074799;28;20190;-69
2024/01/09 01:42:57;;;;;;;5.77;5.17;;;;;;;6.94;68.69;94598.53;5072180;28;20197;-67
2024/01/09 01:45:25;;;;;;;6.53;5.03;;;;;;;6.91;68.75;94597.94;5054959;28;20198;-72
2024/01/09 01:47:53;;;;;;;6.33;5.20;;;;;;;6.94;68.59;94605.34;5072712;28;20218;-68
2024/01/09 01:50:21;;;;;;;5.13;4.63;;;;;;;6.94;68.79;94606.16;5072074;28;20222;-67
2024/01/09 01:52:48;;;;;;;4.83;4.33;;;;;;;6.93;68.69;94604.56;5072261;28;20200;-69
2024/01/09 01:55:18;;;;;;;5.50;4.70;;;;;;;6.95;68.59;94614.59;5071617;28;20198;-70
2024/01/09 01:57:48;;;;;;;5.20;4.70;;;;;;;6.94;68.58;94606.16;5071981;28;20600;-66
2024/01/09 02:00:16;;;;;;;5.13;4.63;;;;;;;6.88;68.55;94588.84;5072162;28;20190;-69
2024/01/09 02:02:48;;;;;;;5.57;4.50;;;;;;;6.92;68.69;94605.47;5072226;28;20190;-72
2024/01/09 02:05:18;;;;;;;5.70;4.97;;;;;;;6.95;68.53;94614.59;5071418;28;20209;-71
2024/01/09 02:07:46;;;;;;;6.93;4.50;;;;;;;6.95;68.46;94609.50;5072264;28;20187;-68
2024/01/09 02:10:14;;;;;;;5.80;4.50;;;;;;;6.95;68.50;94609.50;5073173;28;20194;-67
2024/01/09 02:12:42;;;;;;;5.67;5.07;;;;;;;6.87;68.74;94599.94;5072311;28;20321;-70
2024/01/09 02:15:09;;;;;;;6.67;5.57;;;;;;;6.94;68.55;94611.25;5072087;28;20186;-70
2024/01/09 02:17:38;;;;;;;5.23;4.73;;;;;;;6.87;68.61;94604.22;5071618;28;20206;-70
2024/01/09 02:20:07;;;;;;;5.27;4.70;;;;;;;6.70;68.58;94580.91;5071261;28;20194;-70
2024/01/09 02:22:35;;;;;;;6.57;5.50;;;;;;;6.94;68.54;94621.41;5071766;28;20186;-70
2024/01/09 02:25:02;;;;;;;6.43;5.40;;;;;;;6.93;68.74;94619.81;5071792;28;20185;-69
2024/01/09 02:27:39;;;;;;;5.60;5.10;;;;;;;6.93;68.53;94619.00;5072036;28;20294;-71
2024/01/09 02:30:09;;;;;;;5.70;5.13;;;;;;;6.92;68.62;94622.47;5071774;28;20189;-70
2024/01/09 02:32:38;;;;;;;6.67;4.93;;;;;;;6.66;68.62;94579.53;5071766;28;20202;-67
2024/01/09 02:35:05;;;;;;;4.90;4.30;;;;;;;6.92;68.39;94615.66;5070936;28;20297;-71
2024/01/09 02:37:32;;;;;;;4.90;4.40;;;;;;;6.83;68.43;94606.19;5071199;28;20222;-69
2024/01/09 02:40:00;;;;;;;5.80;4.90;;;;;;;6.84;68.68;94612.06;5071762;28;20183;-68
2024/01/09 02:42:28;;;;;;;5.67;4.80;;;;;;;6.92;68.54;94630.09;5071268;28;20289;-66
2024/01/09 02:44:55;;;;;;;5.53;5.03;;;;;;;6.82;68.49;94606.28;5071277;28;20198;-66
2024/01/09 02:47:25;;;;;;;5.70;4.77;;;;;;;6.92;68.52;94627.56;5071073;28;20621;-69
2024/01/09 02:49:51;;;;;;;5.53;4.93;;;;;;;6.92;68.42;94633.44;5071145;28;20221;-68
2024/01/09 02:52:19;;;;;;;5.57;4.90;;;;;;;6.91;68.35;94624.22;5071179;28;20193;-63
2024/01/09 02:54:46;;;;;;;5.47;4.93;;;;;;;6.81;68.48;94604.69;5071514;28;20279;-69
2024/01/09 02:57:13;;;;;;;6.43;5.27;;;;;;;6.90;68.53;94622.56;5071450;28;20213;-69
2024/01/09 02:59:40;;;;;;;6.23;5.10;;;;;;;6.73;68.54;94583.19;5071154;28;20194;-71
2024/01/09 03:02:07;;;;;;;5.50;5.00;;;;;;;6.90;68.50;94624.31;5070797;28;20192;-70
2024/01/09 03:04:35;;;;;;;5.20;4.70;;;;;;;6.85;68.60;94608.59;5070949;28;20205;-71
2024/01/09 03:07:02;;;;;;;5.20;4.70;;;;;;;6.82;68.61;94608.81;5070159;28;20190;-70
2024/01/09 03:09:29;;;;;;;6.27;5.10;;;;;;;6.77;68.35;94607.44;5071269;28;20186;-70
2024/01/09 03:11:56;;;;;;;6.37;5.10;;;;;;;6.88;68.64;94621.09;5070297;28;20236;-71
2024/01/09 03:14:23;;;;;;;5.57;4.87;;;;;;;6.89;68.47;94631.13;5070275;28;20182;-70
2024/01/09 03:16:50;;;;;;;7.30;5.40;;;;;;;6.87;68.48;94632.19;5070207;28;20653;-70
2024/01/09 03:19:17;;;;;;;6.87;5.00;;;;;;;6.86;68.14;94628.00;5071208;28;20624;-69
2024/01/09 03:21:45;;;;;;;6.37;5.37;;;;;;;6.87;68.37;94634.72;5070079;28;20186;-70
2024/01/09 03:24:12;;;;;;;5.93;5.33;;;;;;;6.70;68.50;94608.06;5070387;28;20201;-70
2024/01/09 03:26:39;;;;;;;6.53;4.97;;;;;;;6.86;68.35;94633.09;5070661;28;20213;-67
2024/01/09 03:29:06;;;;;;;5.43;4.67;;;;;;;6.87;68.41;94633.00;5069899;28;20209;-71
2024/01/09 03:31:33;;;;;;;5.47;4.97;;;;;;;6.88;68.43;94638.88;5070442;28;20194;-70
2024/01/09 03:34:00;;;;;;;5.83;5.27;;;;;;;6.87;68.36;94638.06;5070073;28;20275;-69
2024/01/09 03:36:27;;;;;;;5.80;5.17;;;;;;;6.68;68.35;94610.69;5070091;28;20190;-71
2024/01/09 03:38:55;;;;;;;7.57;5.73;;;;;;;6.88;68.41;94641.44;5070313;28;20246;-64
2024/01/09 03:41:22;;;;;;;5.50;4.80;;;;;;;6.84;68.46;94640.84;5070229;28;20250;-70
2024/01/09 03:43:49;;;;;;;6.30;5.20;;;;;;;6.72;68.39;94618.88;5069852;28;20197;-69
2024/01/09 03:46:16;;;;;;;6.20;5.43;;;;;;;6.88;68.42;94647.31;5071363;28;20201;-66
2024/01/09 03:48:43;;;;;;;5.57;4.97;;;;;;;6.87;68.37;94647.44;5076080;28;20209;-64
2024/01/09 03:51:10;;;;;;;6.43;5.37;;;;;;;6.85;68.35;94660.25;5071926;28;20607;-67
2024/01/09 03:53:37;;;;;;;5.63;4.97;;;;;;;6.87;68.38;94652.53;5071248;28;20638;-68
2024/01/09 03:56:05;;;;;;;7.00;5.53;;;;;;;6.84;68.21;94660.38;5073755;28;20554;-63
2024/01/09 03:58:32;;;;;;;5.90;5.30;;;;;;;6.85;68.24;94665.31;5071644;28;20221;-65
2024/01/09 04:00:59;;;;;;;5.70;4.97;;;;;;;6.86;68.26;94666.94;5070364;28;20186;-63
2024/01/09 04:03:26;;;;;;;5.47;4.93;;;;;;;6.80;68.47;94667.41;5071517;28;20202;-62
2024/01/09 04:05:53;;;;;;;7.00;6.00;;;;;;;6.63;68.13;94642.47;5070931;28;20281;-67
2024/01/09 04:08:20;;;;;;;5.60;4.83;;;;;;;6.85;68.41;94685.66;5075352;28;20187;-65
2024/01/09 04:10:46;;;;;;;6.07;5.47;;;;;;;6.85;68.16;94684.84;5074897;28;20226;-66
2024/01/09 04:13:17;;;;;;;7.17;5.47;;;;;;;6.86;68.28;94689.81;5073910;28;20190;-68
2024/01/09 04:15:44;;;;;;;5.90;5.00;;;;;;;6.86;68.37;94687.28;5071096;28;20653;-68
2024/01/09 04:18:10;;;;;;;8.00;5.80;;;;;;;6.85;68.17;94687.41;5079978;28;20222;-67
2024/01/09 04:20:37;;;;;;;6.13;5.50;;;;;;;6.86;68.25;94699.97;5083439;28;20733;-66
2024/01/09 04:23:04;;;;;;;5.47;4.93;;;;;;;6.76;68.13;94681.28;5076425;28;20193;-67
2024/01/09 04:25:31;;;;;;;6.77;5.47;;;;;;;6.85;68.28;94705.19;5076497;28;20569;-63
2024/01/09 04:27:58;;;;;;;5.73;5.23;;;;;;;6.79;68.13;94693.75;5076356;28;20194;-66
2024/01/09 04:30:26;;;;;;;7.20;5.47;;;;;;;6.60;67.97;94665.53;5076924;28;20193;-63
2024/01/09 04:32:53;;;;;;;7.93;5.50;;;;;;;6.75;67.99;94695.72;5076226;28;20616;-68
2024/01/09 04:35:20;;;;;;;5.90;5.17;;;;;;;6.82;67.91;94702.88;5076131;28;20194;-65
2024/01/09 04:37:47;;;;;;;7.73;5.53;;;;;;;6.82;68.14;94705.41;5075834;28;20233;-65
2024/01/09 04:40:13;;;;;;;6.73;5.33;;;;;;;6.81;68.20;94707.16;5076156;28;20715;-65
2024/01/09 04:42:40;;;;;;;6.77;5.60;;;;;;;6.63;68.07;94683.91;5076442;28;20182;-65
2024/01/09 04:45:07;;;;;;;12.83;6.00;;;;;;;6.78;68.05;94708.19;5076147;28;20603;-62
2024/01/09 04:47:36;;;;;;;5.27;4.77;;;;;;;6.74;68.15;94711.09;5075972;28;20653;-65
2024/01/09 04:50:02;;;;;;;5.93;5.40;;;;;;;6.62;68.15;94699.28;5075884;28;20197;-65
2024/01/09 04:52:29;;;;;;;5.53;4.87;;;;;;;6.82;68.11;94731.63;5076087;28;20201;-68
2024/01/09 04:54:56;;;;;;;6.17;5.40;;;;;;;6.65;68.08;94710.03;5076271;28;20259;-67
2024/01/09 04:57:23;;;;;;;6.43;4.87;;;;;;;6.82;68.04;94733.38;5076155;28;20182;-63
2024/01/09 04:59:50;;;;;;;6.43;5.57;;;;;;;6.60;68.14;94704.47;5076322;28;20183;-66
2024/01/09 05:02:16;;;;;;;6.13;5.13;;;;;;;6.80;67.89;94741.13;5076036;28;20227;-64
2024/01/09 05:04:45;;;;;;;6.13;4.80;;;;;;;6.80;67.75;94738.56;5076057;28;20213;-65
2024/01/09 05:07:12;;;;;;;6.97;5.33;;;;;;;6.81;67.76;94741.91;5075736;28;20190;-67
2024/01/09 05:09:39;;;;;;;5.00;4.50;;;;;;;6.79;67.72;94740.31;5075721;28;20182;-66
2024/01/09 05:12:06;;;;;;;5.07;4.57;;;;;;;6.79;67.70;94732.69;5075908;28;20232;-65
2024/01/09 05:14:33;;;;;;;5.73;5.07;;;;;;;6.78;67.49;94718.38;5075592;28;20684;-65
2024/01/09 05:16:59;;;;;;;5.17;4.67;;;;;;;6.79;67.47;94719.19;5075874;28;20189;-68
2024/01/09 05:19:26;;;;;;;5.17;4.70;;;;;;;6.65;67.27;94696.50;5075555;28;20226;-67
2024/01/09 05:21:54;;;;;;;4.50;4.10;;;;;;;6.78;67.07;94713.28;5076493;28;20190;-67
2024/01/09 05:24:21;;;;;;;4.77;4.27;;;;;;;6.77;67.26;94721.81;5075985;28;20676;-68
2024/01/09 05:26:48;;;;;;;4.07;3.67;;;;;;;6.75;67.04;94722.88;5076363;28;20549;-67
2024/01/09 05:29:14;;;;;;;5.77;4.37;;;;;;;6.74;67.06;94724.59;5075505;28;20178;-67
2024/01/09 05:31:44;;;;;;;6.77;4.60;;;;;;;6.75;66.83;94727.94;5072077;28;20182;-68
2024/01/09 05:34:11;;;;;;;6.27;4.63;;;;;;;6.78;66.79;94731.06;5072190;28;20190;-68
2024/01/09 05:36:38;;;;;;;4.37;3.97;;;;;;;6.78;66.66;94728.53;5072095;28;20205;-66
2024/01/09 05:39:06;;;;;;;6.30;4.30;;;;;;;6.78;66.77;94735.34;5072052;28;20218;-69
2024/01/09 05:41:33;;;;;;;6.27;4.37;;;;;;;6.60;66.79;94712.09;5072854;28;20187;-66
2024/01/09 05:44:00;;;;;;;5.53;4.60;;;;;;;6.79;66.62;94749.66;5073167;28;20186;-68
2024/01/09 05:46:27;;;;;;;5.73;5.00;;;;;;;6.67;66.63;94727.69;5072445;28;20198;-65
2024/01/09 05:48:54;;;;;;;5.53;4.43;;;;;;;6.81;66.66;94752.09;5073168;28;20235;-68
2024/01/09 05:51:20;;;;;;;4.67;3.97;;;;;;;6.79;66.54;94762.38;5077238;28;20186;-69
2024/01/09 05:53:47;;;;;;;4.13;3.77;;;;;;;6.83;66.29;94761.22;5091362;28;20198;-70
2024/01/09 05:56:16;;;;;;;5.17;3.57;;;;;;;6.94;66.14;94763.78;5085051;28;20190;-67
2024/01/09 05:58:42;;;;;;;12.60;3.43;;;;;;;7.07;67.00;94785.75;5072218;28;20214;-70
2024/01/09 06:01:10;;;;;;;4.70;3.17;;;;;;;7.12;70.69;94778.59;5072374;28;20189;-69
2024/01/09 06:03:36;;;;;;;3.40;3.03;;;;;;;7.06;71.75;94776.50;5072638;28;20175;-66
2024/01/09 06:06:03;;;;;;;3.20;2.73;;;;;;;7.08;72.07;94797.53;5072184;28;20183;-69
2024/01/09 06:08:30;;;;;;;3.10;2.87;;;;;;;7.03;71.94;94808.84;5073080;28;20237;-69
2024/01/09 06:10:57;;;;;;;3.20;2.90;;;;;;;6.99;71.78;94812.56;5072196;28;20226;-69
2024/01/09 06:13:25;;;;;;;3.30;2.93;;;;;;;6.98;71.34;94821.09;5078490;28;20197;-65
2024/01/09 06:15:52;;;;;;;3.53;2.77;;;;;;;6.91;70.61;94819.09;5076898;28;20212;-67
2024/01/09 06:18:19;;;;;;;2.73;2.53;;;;;;;6.71;69.84;94803.59;5072224;28;20229;-65
2024/01/09 06:20:46;;;;;;;3.10;2.80;;;;;;;6.90;69.60;94845.47;5072046;28;20190;-65
2024/01/09 06:23:12;;;;;;;2.73;2.53;;;;;;;6.89;69.52;94859.09;5071324;28;20195;-69
2024/01/09 06:25:39;;;;;;;2.67;2.47;;;;;;;6.81;69.02;94856.28;5071574;28;20197;-66
2024/01/09 06:28:07;;;;;;;3.20;2.90;;;;;;;6.85;68.74;94872.94;5070893;28;20186;-66
2024/01/09 06:30:35;;;;;;;3.00;2.70;;;;;;;6.84;68.21;94884.03;5071303;28;20194;-66
2024/01/09 06:33:02;;;;;;;3.10;2.80;;;;;;;6.82;68.13;94883.31;5070944;28;20182;-64
2024/01/09 06:35:29;;;;;;;3.27;2.97;;;;;;;6.79;67.79;94905.50;5071703;28;20213;-70
2024/01/09 06:37:55;;;;;;;2.50;2.30;;;;;;;6.69;67.46;94891.00;5071148;28;20275;-66
2024/01/09 06:40:24;;;;;;;3.23;2.93;;;;;;;6.59;67.01;94887.50;5071020;28;20185;-65
2024/01/09 06:42:50;;;;;;;3.03;2.63;;;;;;;6.70;67.14;94915.53;5070093;28;20211;-64
2024/01/09 06:45:17;;;;;;;2.90;2.60;;;;;;;6.65;66.95;94927.72;5071277;28;20208;-70
2024/01/09 06:47:45;;;;;;;2.50;2.30;;;;;;;6.68;66.88;94935.94;5070814;28;20202;-65
2024/01/09 06:50:13;;;;;;;3.20;2.80;;;;;;;6.67;66.79;94936.06;5071078;28;20193;-67
2024/01/09 06:52:40;;;;;;;3.33;2.80;;;;;;;6.66;66.80;94942.06;5070984;28;20274;-63
2024/01/09 06:55:08;;;;;;;2.90;2.70;;;;;;;6.62;66.58;94938.94;5065306;28;20202;-65
2024/01/09 06:57:34;;;;;;;3.47;2.83;;;;;;;6.58;66.56;94940.06;5069864;28;20654;-63
2024/01/09 07:00:01;;;;;;;3.37;3.07;;;;;;;6.64;66.55;94967.56;5067806;28;20548;-70
2024/01/09 07:02:28;;;;;;;2.93;2.73;;;;;;;6.62;66.37;94974.50;5069648;28;20251;-68
2024/01/09 07:04:57;;;;;;;3.20;3.00;;;;;;;6.59;66.29;94979.78;5069786;28;20205;-69
2024/01/09 07:07:24;;;;;;;3.40;3.10;;;;;;;6.38;65.94;94956.69;5069709;28;20186;-70
2024/01/09 07:09:51;;;;;;;3.47;3.10;;;;;;;6.56;65.90;94981.72;5069221;28;20197;-68
2024/01/09 07:12:18;;;;;;;2.93;2.57;;;;;;;6.53;65.80;94980.22;5069113;28;20230;-71
2024/01/09 07:14:45;;;;;;;4.00;3.07;;;;;;;6.49;65.46;94988.97;5068950;28;20303;-68
2024/01/09 07:17:12;;;;;;;3.40;3.10;;;;;;;6.49;65.47;94992.31;5069340;28;20194;-70
2024/01/09 07:19:38;;;;;;;3.53;3.23;;;;;;;6.46;65.36;94990.00;5068892;28;20205;-69
2024/01/09 07:22:07;;;;;;;3.50;3.20;;;;;;;6.44;65.31;95003.72;5069554;28;20186;-67
2024/01/09 07:24:34;;;;;;;3.67;3.33;;;;;;;5.79;65.10;94924.28;5069158;28;20217;-70
2024/01/09 07:27:01;;;;;;;3.83;3.40;;;;;;;6.36;65.07;95003.44;5069645;28;20186;-69
2024/01/09 07:29:28;;;;;;;3.30;3.00;;;;;;;6.33;64.94;95006.97;5069557;28;20194;-69
2024/01/09 07:31:55;;;;;;;3.63;3.33;;;;;;;6.17;65.10;94981.00;5068937;28;20189;-69
2024/01/09 07:34:22;;;;;;;3.43;3.20;;;;;;;6.31;65.04;95005.47;5069285;28;20572;-70
2024/01/09 07:36:48;;;;;;;3.67;3.37;;;;;;;6.26;64.74;95015.91;5069163;28;20926;-66
2024/01/09 07:39:16;;;;;;;3.33;3.03;;;;;;;6.28;64.99;95019.19;5069432;28;20233;-70
2024/01/09 07:41:43;;;;;;;3.87;3.27;;;;;;;6.27;64.98;95018.38;5066693;28;20191;-69
2024/01/09 07:44:11;;;;;;;3.60;3.30;;;;;;;6.26;64.78;95021.00;5069504;28;20186;-68
2024/01/09 07:46:38;;;;;;;4.37;3.20;;;;;;;6.15;64.87;95003.16;5069304;28;20622;-65
2024/01/09 07:49:06;;;;;;;4.17;3.40;;;;;;;6.20;64.62;95017.16;5069435;28;20888;-65
2024/01/09 07:51:33;;;;;;;3.37;3.07;;;;;;;6.21;64.59;95023.03;5069074;28;20210;-63
2024/01/09 07:53:59;;;;;;;4.43;3.40;;;;;;;6.21;64.68;95015.44;5069025;28;20346;-68
2024/01/09 07:56:28;;;;;;;4.00;3.30;;;;;;;6.22;64.61;95017.88;5069556;28;20194;-71
2024/01/09 07:58:55;;;;;;;4.27;3.53;;;;;;;6.23;64.57;95014.41;5068568;28;20252;-63
2024/01/09 08:01:23;;;;;;;4.67;3.80;;;;;;;6.26;64.64;95019.31;5068310;28;20198;-64
2024/01/09 08:03:50;;;;;;;4.20;3.50;;;;;;;6.27;64.61;95022.66;5068812;28;20244;-62
2024/01/09 08:06:17;;;;;;;4.20;3.50;;;;;;;6.09;64.49;94996.78;5069566;28;20201;-62
2024/01/09 08:08:44;;;;;;;5.53;3.67;;;;;;;6.24;64.20;95025.38;5066564;28;20248;-72
2024/01/09 08:11:11;;;;;;;6.70;3.70;;;;;;;6.31;64.21;95035.97;5069041;28;20233;-69
2024/01/09 08:13:41;;;;;;;4.20;3.73;;;;;;;6.23;64.31;95027.13;5066395;28;20293;-70
2024/01/09 08:16:09;;;;;;;4.63;3.90;;;;;;;6.29;64.31;95041.94;5069774;28;20195;-68
2024/01/09 08:18:36;;;;;;;4.67;4.07;;;;;;;6.32;64.12;95050.28;5072938;28;20222;-66
2024/01/09 08:21:03;;;;;;;4.37;3.60;;;;;;;6.33;64.03;95047.63;5083200;28;20229;-67
2024/01/09 08:23:30;;;;;;;4.63;3.80;;;;;;;6.35;63.93;95048.34;5082951;28;20189;-70
2024/01/09 08:25:57;;;;;;;3.87;3.50;;;;;;;6.38;63.89;95054.94;5080121;28;20198;-65
2024/01/09 08:28:24;;;;;;;3.80;3.50;;;;;;;6.27;64.02;95041.25;5082062;28;20206;-65
2024/01/09 08:30:53;;;;;;;5.30;3.63;;;;;;;6.39;63.85;95064.16;5069320;28;20198;-63
2024/01/09 08:33:20;;;;;;;5.80;4.07;;;;;;;6.29;63.67;95043.66;5068835;28;20182;-72
2024/01/09 08:35:50;;;;;;;3.80;3.50;;;;;;;6.42;63.65;95077.47;5068239;28;20201;-71
2024/01/09 08:38:17;;;;;;;8.63;3.83;;;;;;;6.37;63.46;95060.94;5067489;28;20194;-69
2024/01/09 08:40:44;;;;;;;3.60;3.10;;;;;;;6.45;63.38;95069.66;5068778;28;20661;-69
2024/01/09 08:43:11;;;;;;;4.00;3.27;;;;;;;6.46;63.07;95075.56;5067669;28;20309;-67
2024/01/09 08:45:38;;;;;;;3.30;3.00;;;;;;;6.47;63.17;95075.44;5066497;28;20186;-71
2024/01/09 08:48:07;;;;;;;4.30;3.53;;;;;;;6.45;63.12;95076.47;5066530;28;20240;-67
2024/01/09 08:50:34;;;;;;;3.80;3.50;;;;;;;6.46;63.02;95068.75;5067376;28;20222;-70
2024/01/09 08:53:00;;;;;;;3.73;3.43;;;;;;;6.53;62.90;95075.03;5067333;28;20206;-70
2024/01/09 08:55:27;;;;;;;5.70;3.83;;;;;;;6.57;62.82;95078.19;5066994;28;20269;-68
2024/01/09 08:57:54;;;;;;;4.23;3.23;;;;;;;6.24;62.72;95021.13;5072431;28;20580;-71
2024/01/09 09:00:21;;;;;;;5.50;3.70;;;;;;;6.56;62.82;95061.31;5072197;28;20731;-68
2024/01/09 09:02:48;;;;;;;4.70;3.40;;;;;;;6.67;62.61;95076.66;5067049;28;20273;-68
2024/01/09 09:05:16;;;;;;;3.60;3.30;;;;;;;6.69;62.54;95072.28;5067155;28;20225;-64
2024/01/09 09:07:43;;;;;;;4.00;3.47;;;;;;;6.73;62.43;95081.28;5070102;28;20205;-70
2024/01/09 09:10:10;;;;;;;3.77;3.47;;;;;;;6.76;62.33;95082.81;5067725;28;20197;-69
2024/01/09 09:12:37;;;;;;;3.30;3.00;;;;;;;6.79;62.13;95080.09;5072937;28;20234;-69
2024/01/09 09:15:04;;;;;;;3.67;3.03;;;;;;;6.82;62.13;95089.22;5072999;28;20198;-63
2024/01/09 09:17:31;;;;;;;4.03;3.57;;;;;;;6.79;61.86;95088.50;5073244;28;20230;-63
2024/01/09 09:19:58;;;;;;;4.23;3.23;;;;;;;6.82;61.91;95081.59;5072060;28;20297;-62
2024/01/09 09:22:29;;;;;;;4.20;3.33;;;;;;;6.77;61.88;95074.28;5071182;28;20187;-67
2024/01/09 09:24:56;;;;;;;4.93;3.23;;;;;;;6.68;61.90;95057.13;5071405;28;20247;-65
2024/01/09 09:27:23;;;;;;;3.50;3.20;;;;;;;6.95;61.56;95090.84;5071500;28;20193;-66
2024/01/09 09:29:52;;;;;;;5.47;3.33;;;;;;;7.01;61.54;95097.22;5071131;28;20833;-67
2024/01/09 09:32:19;;;;;;;5.23;3.50;;;;;;;7.09;61.54;95104.31;5071575;28;20190;-66
2024/01/09 09:34:46;;;;;;;6.20;3.67;;;;;;;7.15;61.46;95114.06;5072087;28;20522;-66
2024/01/09 09:37:12;;;;;;;4.00;3.27;;;;;;;6.99;61.08;95069.38;5071075;28;20179;-69
2024/01/09 09:39:41;;;;;;;3.50;3.03;;;;;;;7.16;60.93;95090.25;5071030;28;20222;-70
2024/01/09 09:42:10;;;;;;;5.20;3.10;;;;;;;7.27;60.67;95098.75;5071514;28;20193;-64
2024/01/09 09:44:38;;;;;;;3.50;3.17;;;;;;;7.36;60.64;95104.13;5071725;28;20549;-70
2024/01/09 09:47:06;;;;;;;4.10;3.53;;;;;;;7.32;60.32;95080.63;5071174;28;20617;-68
2024/01/09 09:49:37;;;;;;;8.97;3.03;;;;;;;7.46;60.21;95093.16;5069725;28;20198;-69
2024/01/09 09:52:05;;;;;;;3.67;3.37;;;;;;;7.62;59.98;95097.19;5071357;28;20229;-72
2024/01/09 09:54:33;;;;;;;4.10;3.23;;;;;;;7.61;59.89;95085.38;5070512;28;20695;-67
2024/01/09 09:57:01;;;;;;;4.33;3.50;;;;;;;7.77;59.67;95094.34;5071076;28;20206;-67
2024/01/09 09:59:28;;;;;;;4.07;3.60;;;;;;;7.86;59.61;95095.41;5071017;28;20248;-65
2024/01/09 10:01:55;;;;;;;4.43;3.20;;;;;;;7.50;59.24;95018.22;5071073;28;20194;-70
2024/01/09 10:04:30;;;;;;;4.83;3.47;;;;;;;8.01;59.08;95083.28;5072432;28;20201;-63
2024/01/09 10:06:58;;;;;;;5.40;3.20;;;;;;;8.05;59.00;95077.06;5069901;28;20280;-67
2024/01/09 10:09:31;;;;;;;3.60;3.30;;;;;;;8.17;58.71;95081.25;5072164;28;20203;-65
2024/01/09 10:11:57;;;;;;;4.33;3.13;;;;;;;8.20;58.51;95081.03;5073994;28;20239;-66
2024/01/09 10:14:26;;;;;;;4.13;3.67;;;;;;;8.11;58.54;95063.84;5070798;28;20418;-65
2024/01/09 10:16:54;;;;;;;3.97;3.27;;;;;;;8.35;58.20;95088.44;5070683;28;20665;-69
2024/01/09 10:19:22;;;;;;;4.47;3.60;;;;;;;8.41;58.10;95088.00;5071001;28;20210;-65
2024/01/09 10:21:49;;;;;;;3.70;3.33;;;;;;;8.34;57.71;95072.34;5071224;28;20206;-64
2024/01/09 10:24:17;;;;;;;3.90;3.60;;;;;;;8.46;57.75;95079.13;5070637;28;20194;-65
2024/01/09 10:26:44;;;;;;;4.00;3.60;;;;;;;8.37;57.49;95072.13;5071167;28;20277;-66
2024/01/09 10:29:12;;;;;;;3.80;3.30;;;;;;;8.48;57.14;95092.53;5071282;28;20201;-66
2024/01/09 10:31:44;;;;;;;5.63;3.80;;;;;;;8.51;57.29;95096.63;5072098;28;20236;-67
2024/01/09 10:34:11;;;;;;;3.93;3.43;;;;;;;8.49;57.30;95101.00;5067869;28;20191;-68
2024/01/09 10:36:38;;;;;;;4.43;4.03;;;;;;;8.37;57.22;95078.97;5072566;28;20633;-69
2024/01/09 10:39:05;;;;;;;4.23;3.83;;;;;;;8.49;57.00;95113.75;5071896;28;20195;-69
2024/01/09 10:41:33;;;;;;;4.63;3.80;;;;;;;8.45;57.02;95115.69;5071334;28;20610;-69
2024/01/09 10:44:01;;;;;;;5.57;4.10;;;;;;;8.23;56.97;95093.53;5071458;28;20205;-62
2024/01/09 10:46:29;;;;;;;6.43;4.83;;;;;;;8.36;56.89;95124.00;5071835;28;20206;-69
2024/01/09 10:48:58;;;;;;;5.30;4.00;;;;;;;8.32;56.80;95132.78;5066912;28;20226;-67
2024/01/09 10:51:25;;;;;;;6.73;4.40;;;;;;;8.26;56.75;95134.06;5071347;28;20280;-69
2024/01/09 10:53:52;;;;;;;5.67;4.10;;;;;;;8.19;56.73;95129.53;5071200;28;20194;-68
2024/01/09 10:56:21;;;;;;;5.47;4.73;;;;;;;8.14;56.81;95127.31;5072009;28;20248;-65
2024/01/09 10:58:50;;;;;;;6.07;4.30;;;;;;;8.15;56.85;95140.88;5070337;28;20255;-66
2024/01/09 11:01:17;;;;;;;6.07;4.67;;;;;;;8.14;56.61;95139.25;5070641;28;20202;-69
2024/01/09 11:03:44;;;;;;;6.47;5.07;;;;;;;8.08;56.54;95160.09;5071922;28;20186;-68
2024/01/09 11:06:16;;;;;;;7.53;4.60;;;;;;;7.99;56.49;95157.28;5072840;28;20190;-70
2024/01/09 11:08:46;;;;;;;4.87;4.37;;;;;;;7.93;56.45;95161.97;5071654;28;20195;-67
2024/01/09 11:11:16;;;;;;;7.53;4.77;;;;;;;7.56;56.65;95125.63;5067962;28;20241;-69
2024/01/09 11:13:47;;;;;;;5.77;5.03;;;;;;;7.76;56.45;95161.44;5067804;28;20194;-66
2024/01/09 11:16:15;;;;;;;5.77;5.10;;;;;;;7.73;56.42;95174.41;5068232;28;20206;-70
2024/01/09 11:18:43;;;;;;;6.03;5.43;;;;;;;7.67;56.46;95167.19;5067935;28;20278;-69
2024/01/09 11:21:11;;;;;;;7.00;5.40;;;;;;;7.63;56.56;95172.59;5067785;28;20772;-69
2024/01/09 11:24:00;;;;;;;7.07;5.00;;;;;;;7.58;56.62;95178.03;5066800;28;20252;-67
2024/01/09 11:26:29;;;;;;;6.47;4.87;;;;;;;7.54;56.78;95179.16;5065488;28;20222;-64
2024/01/09 11:28:57;;;;;;;5.83;4.70;;;;;;;7.50;56.76;95172.66;5069274;28;20239;-66
2024/01/09 11:31:24;;;;;;;5.73;5.17;;;;;;;7.40;56.71;95175.03;5070025;28;20669;-67
2024/01/09 11:33:52;;;;;;;7.57;5.30;;;;;;;7.40;56.43;95185.22;5070551;28;20190;-68
2024/01/09 11:36:24;;;;;;;7.10;5.50;;;;;;;7.35;56.63;95189.81;5070696;28;20262;-68
2024/01/09 11:38:54;;;;;;;5.33;4.80;;;;;;;7.30;56.49;95184.22;5069961;28;20277;-70
2024/01/09 11:41:22;;;;;;;5.30;4.70;;;;;;;7.26;56.37;95195.53;5069939;28;20218;-66
2024/01/09 11:44:02;;;;;;;6.23;4.60;;;;;;;6.78;55.88;95127.56;5070869;28;20187;-65